sensor_id;sensor_type;location;lat;lon;timestamp;temperature;humidity
16503;DHT22;53067;48.114;11.694;2023-04-03T00:01:16;5.60;83.00
16503;DHT22;53067;48.114;11.694;2023-04-03T00:03:44;5.60;82.90
16503;DHT22;53067;48.114;11.694;2023-04-03T00:06:12;5.60;83.00
16503;DHT22;53067;48.114;11.694;2023-04-03T00:08:40;5.60;83.00
16503;DHT22;53067;48.114;11.694;2023-04-03T00:11:09;5.60;83.30
16503;DHT22;53067;48.114;11.694;2023-04-03T00:13:37;5.70;83.20
16503;DHT22;53067;48.114;11.694;2023-04-03T00:16:06;5.70;82.90
16503;DHT22;53067;48.114;11.694;2023-04-03T00:18:33;5.80;82.70
16503;DHT22;53067;48.114;11.694;2023-04-03T00:21:02;5.80;83.40
16503;DHT22;53067;48.114;11.694;2023-04-03T00:23:29;5.80;82.40
16503;DHT22;53067;48.114;11.694;2023-04-03T00:25:57;5.70;82.30
16503;DHT22;53067;48.114;11.694;2023-04-03T00:28:24;5.60;82.70
16503;DHT22;53067;48.114;11.694;2023-04-03T00:30:53;5.60;83.00
16503;DHT22;53067;48.114;11.694;2023-04-03T00:33:20;5.70;82.90
16503;DHT22;53067;48.114;11.694;2023-04-03T00:35:51;5.70;82.80
16503;DHT22;53067;48.114;11.694;2023-04-03T00:38:19;5.60;82.70
16503;DHT22;53067;48.114;11.694;2023-04-03T00:40:49;5.60;83.00
16503;DHT22;53067;48.114;11.694;2023-04-03T00:43:23;5.60;82.70
16503;DHT22;53067;48.114;11.694;2023-04-03T00:45:49;5.60;82.60
16503;DHT22;53067;48.114;11.694;2023-04-03T00:48:26;5.60;82.90
16503;DHT22;53067;48.114;11.694;2023-04-03T00:50:54;5.60;82.80
16503;DHT22;53067;48.114;11.694;2023-04-03T00:53:29;5.60;82.90
16503;DHT22;53067;48.114;11.694;2023-04-03T00:55:54;5.60;82.90
16503;DHT22;53067;48.114;11.694;2023-04-03T00:58:27;5.60;82.90
16503;DHT22;53067;48.114;11.694;2023-04-03T01:00:55;5.60;82.80
16503;DHT22;53067;48.114;11.694;2023-04-03T01:03:43;5.50;83.00
16503;DHT22;53067;48.114;11.694;2023-04-03T01:06:11;5.50;82.70
16503;DHT22;53067;48.114;11.694;2023-04-03T01:08:39;5.50;82.80
16503;DHT22;53067;48.114;11.694;2023-04-03T01:11:06;5.50;83.10
16503;DHT22;53067;48.114;11.694;2023-04-03T01:13:34;5.50;82.80
16503;DHT22;53067;48.114;11.694;2023-04-03T01:16:04;5.60;82.70
16503;DHT22;53067;48.114;11.694;2023-04-03T01:18:33;5.60;82.80
16503;DHT22;53067;48.114;11.694;2023-04-03T01:24:32;5.50;82.70
16503;DHT22;53067;48.114;11.694;2023-04-03T01:27:03;5.40;83.00
16503;DHT22;53067;48.114;11.694;2023-04-03T01:29:31;5.40;83.40
16503;DHT22;53067;48.114;11.694;2023-04-03T01:32:00;5.40;83.70
16503;DHT22;53067;48.114;11.694;2023-04-03T01:34:35;5.40;83.80
16503;DHT22;53067;48.114;11.694;2023-04-03T01:37:03;5.40;83.70
16503;DHT22;53067;48.114;11.694;2023-04-03T01:39:31;5.50;83.60
16503;DHT22;53067;48.114;11.694;2023-04-03T01:41:58;5.50;83.40
16503;DHT22;53067;48.114;11.694;2023-04-03T01:44:26;5.50;83.40
16503;DHT22;53067;48.114;11.694;2023-04-03T01:46:53;5.50;83.40
16503;DHT22;53067;48.114;11.694;2023-04-03T01:49:21;5.50;83.40
16503;DHT22;53067;48.114;11.694;2023-04-03T01:51:48;5.50;83.00
16503;DHT22;53067;48.114;11.694;2023-04-03T01:54:16;5.50;83.20
16503;DHT22;53067;48.114;11.694;2023-04-03T01:56:43;5.60;83.40
16503;DHT22;53067;48.114;11.694;2023-04-03T01:59:11;5.60;83.00
16503;DHT22;53067;48.114;11.694;2023-04-03T02:01:38;5.60;82.90
16503;DHT22;53067;48.114;11.694;2023-04-03T02:04:06;5.60;82.90
16503;DHT22;53067;48.114;11.694;2023-04-03T02:06:33;5.60;83.00
16503;DHT22;53067;48.114;11.694;2023-04-03T02:09:01;5.60;83.10
16503;DHT22;53067;48.114;11.694;2023-04-03T02:11:28;5.70;83.10
16503;DHT22;53067;48.114;11.694;2023-04-03T02:13:56;5.70;83.00
16503;DHT22;53067;48.114;11.694;2023-04-03T02:16:24;5.70;83.10
16503;DHT22;53067;48.114;11.694;2023-04-03T02:18:51;5.70;83.10
16503;DHT22;53067;48.114;11.694;2023-04-03T02:21:19;5.70;82.90
16503;DHT22;53067;48.114;11.694;2023-04-03T02:23:46;5.70;82.90
16503;DHT22;53067;48.114;11.694;2023-04-03T02:26:15;5.80;82.90
16503;DHT22;53067;48.114;11.694;2023-04-03T02:28:43;5.80;82.60
16503;DHT22;53067;48.114;11.694;2023-04-03T02:31:11;5.80;82.30
16503;DHT22;53067;48.114;11.694;2023-04-03T02:33:39;5.80;82.20
16503;DHT22;53067;48.114;11.694;2023-04-03T02:36:07;5.80;82.30
16503;DHT22;53067;48.114;11.694;2023-04-03T02:38:43;5.80;82.50
16503;DHT22;53067;48.114;11.694;2023-04-03T02:41:11;5.80;82.00
16503;DHT22;53067;48.114;11.694;2023-04-03T02:43:39;5.80;82.30
16503;DHT22;53067;48.114;11.694;2023-04-03T02:46:07;5.80;82.40
16503;DHT22;53067;48.114;11.694;2023-04-03T02:48:34;5.80;82.30
16503;DHT22;53067;48.114;11.694;2023-04-03T02:51:02;5.80;82.10
16503;DHT22;53067;48.114;11.694;2023-04-03T02:53:30;5.80;82.10
16503;DHT22;53067;48.114;11.694;2023-04-03T02:55:57;5.80;82.10
16503;DHT22;53067;48.114;11.694;2023-04-03T02:58:25;5.80;81.50
16503;DHT22;53067;48.114;11.694;2023-04-03T03:00:53;5.80;81.40
16503;DHT22;53067;48.114;11.694;2023-04-03T03:03:20;5.80;81.20
16503;DHT22;53067;48.114;11.694;2023-04-03T03:05:48;5.80;81.30
16503;DHT22;53067;48.114;11.694;2023-04-03T03:08:16;5.80;81.80
16503;DHT22;53067;48.114;11.694;2023-04-03T03:10:45;5.80;81.90
16503;DHT22;53067;48.114;11.694;2023-04-03T03:13:13;5.80;81.60
16503;DHT22;53067;48.114;11.694;2023-04-03T03:15:40;5.80;81.60
16503;DHT22;53067;48.114;11.694;2023-04-03T03:18:08;5.80;81.60
16503;DHT22;53067;48.114;11.694;2023-04-03T03:20:35;5.80;81.50
16503;DHT22;53067;48.114;11.694;2023-04-03T03:23:03;5.80;81.80
16503;DHT22;53067;48.114;11.694;2023-04-03T03:25:31;5.80;81.30
16503;DHT22;53067;48.114;11.694;2023-04-03T03:27:58;5.80;80.90
16503;DHT22;53067;48.114;11.694;2023-04-03T03:30:26;5.80;80.80
16503;DHT22;53067;48.114;11.694;2023-04-03T03:32:53;5.80;80.50
16503;DHT22;53067;48.114;11.694;2023-04-03T03:35:21;5.80;80.80
16503;DHT22;53067;48.114;11.694;2023-04-03T03:37:48;5.80;80.80
16503;DHT22;53067;48.114;11.694;2023-04-03T03:40:16;5.80;80.60
16503;DHT22;53067;48.114;11.694;2023-04-03T03:42:44;5.80;80.90
16503;DHT22;53067;48.114;11.694;2023-04-03T03:45:11;5.80;81.10
16503;DHT22;53067;48.114;11.694;2023-04-03T03:47:39;5.80;81.10
16503;DHT22;53067;48.114;11.694;2023-04-03T03:50:08;5.80;81.00
16503;DHT22;53067;48.114;11.694;2023-04-03T03:52:35;5.80;81.10
16503;DHT22;53067;48.114;11.694;2023-04-03T03:55:03;5.80;81.00
16503;DHT22;53067;48.114;11.694;2023-04-03T03:57:31;5.80;80.60
16503;DHT22;53067;48.114;11.694;2023-04-03T03:59:58;5.80;80.60
16503;DHT22;53067;48.114;11.694;2023-04-03T04:02:26;5.80;80.70
16503;DHT22;53067;48.114;11.694;2023-04-03T04:04:54;5.80;80.80
16503;DHT22;53067;48.114;11.694;2023-04-03T04:07:21;5.80;80.20
16503;DHT22;53067;48.114;11.694;2023-04-03T04:09:49;5.80;80.20
16503;DHT22;53067;48.114;11.694;2023-04-03T04:12:16;5.80;80.30
16503;DHT22;53067;48.114;11.694;2023-04-03T04:14:44;5.80;79.80
16503;DHT22;53067;48.114;11.694;2023-04-03T04:17:13;5.70;80.20
16503;DHT22;53067;48.114;11.694;2023-04-03T04:19:41;5.80;80.50
16503;DHT22;53067;48.114;11.694;2023-04-03T04:22:08;5.70;80.30
16503;DHT22;53067;48.114;11.694;2023-04-03T04:24:36;5.80;80.50
16503;DHT22;53067;48.114;11.694;2023-04-03T04:27:04;5.80;80.50
16503;DHT22;53067;48.114;11.694;2023-04-03T04:29:31;5.80;80.60
16503;DHT22;53067;48.114;11.694;2023-04-03T04:32:01;5.70;80.50
16503;DHT22;53067;48.114;11.694;2023-04-03T04:34:29;5.80;80.10
16503;DHT22;53067;48.114;11.694;2023-04-03T04:36:56;5.80;80.10
16503;DHT22;53067;48.114;11.694;2023-04-03T04:39:24;5.80;80.10
16503;DHT22;53067;48.114;11.694;2023-04-03T04:41:51;5.80;79.80
16503;DHT22;53067;48.114;11.694;2023-04-03T04:44:19;5.80;80.00
16503;DHT22;53067;48.114;11.694;2023-04-03T04:46:46;5.80;80.10
16503;DHT22;53067;48.114;11.694;2023-04-03T04:49:14;5.80;80.00
16503;DHT22;53067;48.114;11.694;2023-04-03T04:51:42;5.80;80.00
16503;DHT22;53067;48.114;11.694;2023-04-03T04:54:09;5.80;80.20
16503;DHT22;53067;48.114;11.694;2023-04-03T04:56:37;5.80;80.30
16503;DHT22;53067;48.114;11.694;2023-04-03T04:59:04;5.80;80.50
16503;DHT22;53067;48.114;11.694;2023-04-03T05:01:32;5.80;80.70
16503;DHT22;53067;48.114;11.694;2023-04-03T05:03:59;5.80;80.30
16503;DHT22;53067;48.114;11.694;2023-04-03T05:06:27;5.90;80.40
16503;DHT22;53067;48.114;11.694;2023-04-03T05:08:56;5.80;79.50
16503;DHT22;53067;48.114;11.694;2023-04-03T05:11:24;5.80;79.40
16503;DHT22;53067;48.114;11.694;2023-04-03T05:13:52;5.80;79.60
16503;DHT22;53067;48.114;11.694;2023-04-03T05:16:19;5.80;79.40
16503;DHT22;53067;48.114;11.694;2023-04-03T05:18:47;5.80;79.20
16503;DHT22;53067;48.114;11.694;2023-04-03T05:21:14;5.80;78.90
16503;DHT22;53067;48.114;11.694;2023-04-03T05:23:42;5.70;79.20
16503;DHT22;53067;48.114;11.694;2023-04-03T05:26:10;5.70;79.40
16503;DHT22;53067;48.114;11.694;2023-04-03T05:28:37;5.80;79.00
16503;DHT22;53067;48.114;11.694;2023-04-03T05:31:05;5.80;79.40
16503;DHT22;53067;48.114;11.694;2023-04-03T05:33:32;5.80;79.70
16503;DHT22;53067;48.114;11.694;2023-04-03T05:36:02;5.80;79.70
16503;DHT22;53067;48.114;11.694;2023-04-03T05:38:30;5.80;79.90
16503;DHT22;53067;48.114;11.694;2023-04-03T05:40:58;5.80;80.10
16503;DHT22;53067;48.114;11.694;2023-04-03T05:43:25;5.80;80.10
16503;DHT22;53067;48.114;11.694;2023-04-03T05:45:53;5.80;79.70
16503;DHT22;53067;48.114;11.694;2023-04-03T05:48:20;5.80;79.60
16503;DHT22;53067;48.114;11.694;2023-04-03T05:50:48;5.80;79.70
16503;DHT22;53067;48.114;11.694;2023-04-03T05:53:21;5.90;79.60
16503;DHT22;53067;48.114;11.694;2023-04-03T05:55:48;5.90;79.30
16503;DHT22;53067;48.114;11.694;2023-04-03T05:58:16;5.90;79.50
16503;DHT22;53067;48.114;11.694;2023-04-03T06:00:43;5.90;79.00
16503;DHT22;53067;48.114;11.694;2023-04-03T06:03:12;5.80;79.40
16503;DHT22;53067;48.114;11.694;2023-04-03T06:05:39;5.90;79.10
16503;DHT22;53067;48.114;11.694;2023-04-03T06:08:08;5.90;79.00
16503;DHT22;53067;48.114;11.694;2023-04-03T06:10:35;5.90;79.00
16503;DHT22;53067;48.114;11.694;2023-04-03T06:13:03;5.90;78.80
16503;DHT22;53067;48.114;11.694;2023-04-03T06:15:30;5.90;78.50
16503;DHT22;53067;48.114;11.694;2023-04-03T06:17:58;5.90;78.60
16503;DHT22;53067;48.114;11.694;2023-04-03T06:20:26;5.90;78.50
16503;DHT22;53067;48.114;11.694;2023-04-03T06:22:53;5.90;78.20
16503;DHT22;53067;48.114;11.694;2023-04-03T06:25:21;5.90;78.20
16503;DHT22;53067;48.114;11.694;2023-04-03T06:27:49;5.80;78.40
16503;DHT22;53067;48.114;11.694;2023-04-03T06:30:16;5.90;79.00
16503;DHT22;53067;48.114;11.694;2023-04-03T06:32:44;5.90;78.50
16503;DHT22;53067;48.114;11.694;2023-04-03T06:35:11;5.90;78.60
16503;DHT22;53067;48.114;11.694;2023-04-03T06:37:39;5.90;78.30
16503;DHT22;53067;48.114;11.694;2023-04-03T06:40:09;5.90;78.20
16503;DHT22;53067;48.114;11.694;2023-04-03T06:42:37;5.90;78.50
16503;DHT22;53067;48.114;11.694;2023-04-03T06:45:05;6.00;78.40
16503;DHT22;53067;48.114;11.694;2023-04-03T06:47:34;5.90;77.50
16503;DHT22;53067;48.114;11.694;2023-04-03T06:50:01;5.90;78.20
16503;DHT22;53067;48.114;11.694;2023-04-03T06:52:29;6.00;77.80
16503;DHT22;53067;48.114;11.694;2023-04-03T06:54:57;6.00;77.80
16503;DHT22;53067;48.114;11.694;2023-04-03T06:57:26;6.00;77.90
16503;DHT22;53067;48.114;11.694;2023-04-03T06:59:53;6.10;77.70
16503;DHT22;53067;48.114;11.694;2023-04-03T07:02:20;6.10;78.00
16503;DHT22;53067;48.114;11.694;2023-04-03T07:04:48;6.10;77.40
16503;DHT22;53067;48.114;11.694;2023-04-03T07:07:16;6.10;77.50
16503;DHT22;53067;48.114;11.694;2023-04-03T07:09:44;6.10;77.10
16503;DHT22;53067;48.114;11.694;2023-04-03T07:12:13;6.10;76.80
16503;DHT22;53067;48.114;11.694;2023-04-03T07:14:41;6.10;76.80
16503;DHT22;53067;48.114;11.694;2023-04-03T07:17:09;6.10;77.30
16503;DHT22;53067;48.114;11.694;2023-04-03T07:19:36;6.20;76.70
16503;DHT22;53067;48.114;11.694;2023-04-03T07:22:04;6.20;77.10
16503;DHT22;53067;48.114;11.694;2023-04-03T07:24:31;6.30;76.50
16503;DHT22;53067;48.114;11.694;2023-04-03T07:26:59;6.30;76.80
16503;DHT22;53067;48.114;11.694;2023-04-03T07:29:28;6.40;76.40
16503;DHT22;53067;48.114;11.694;2023-04-03T07:31:56;6.50;75.50
16503;DHT22;53067;48.114;11.694;2023-04-03T07:34:24;6.50;75.00
16503;DHT22;53067;48.114;11.694;2023-04-03T07:36:51;6.60;74.10
16503;DHT22;53067;48.114;11.694;2023-04-03T07:39:19;6.60;73.70
16503;DHT22;53067;48.114;11.694;2023-04-03T07:41:46;6.60;73.90
16503;DHT22;53067;48.114;11.694;2023-04-03T07:44:14;6.60;73.80
16503;DHT22;53067;48.114;11.694;2023-04-03T07:46:41;6.60;73.70
16503;DHT22;53067;48.114;11.694;2023-04-03T07:49:09;6.70;73.30
16503;DHT22;53067;48.114;11.694;2023-04-03T07:51:52;6.60;73.70
16503;DHT22;53067;48.114;11.694;2023-04-03T07:54:19;6.50;73.30
16503;DHT22;53067;48.114;11.694;2023-04-03T07:56:47;6.50;73.60
16503;DHT22;53067;48.114;11.694;2023-04-03T07:59:14;6.50;73.60
16503;DHT22;53067;48.114;11.694;2023-04-03T08:01:42;6.50;73.40
16503;DHT22;53067;48.114;11.694;2023-04-03T08:04:09;6.40;74.20
16503;DHT22;53067;48.114;11.694;2023-04-03T08:06:37;6.30;74.20
16503;DHT22;53067;48.114;11.694;2023-04-03T08:09:04;6.40;74.60
16503;DHT22;53067;48.114;11.694;2023-04-03T08:11:32;6.40;74.50
16503;DHT22;53067;48.114;11.694;2023-04-03T08:13:59;6.40;74.40
16503;DHT22;53067;48.114;11.694;2023-04-03T08:16:29;6.40;73.70
16503;DHT22;53067;48.114;11.694;2023-04-03T08:18:56;6.40;73.90
16503;DHT22;53067;48.114;11.694;2023-04-03T08:21:23;6.50;74.50
16503;DHT22;53067;48.114;11.694;2023-04-03T08:23:52;6.50;73.90
16503;DHT22;53067;48.114;11.694;2023-04-03T08:26:21;6.50;73.70
16503;DHT22;53067;48.114;11.694;2023-04-03T08:28:49;6.50;74.00
16503;DHT22;53067;48.114;11.694;2023-04-03T08:31:19;6.50;73.60
16503;DHT22;53067;48.114;11.694;2023-04-03T08:33:47;6.50;74.50
16503;DHT22;53067;48.114;11.694;2023-04-03T08:36:21;6.50;75.00
16503;DHT22;53067;48.114;11.694;2023-04-03T08:38:50;6.50;74.70
16503;DHT22;53067;48.114;11.694;2023-04-03T08:41:31;6.60;73.80
16503;DHT22;53067;48.114;11.694;2023-04-03T08:46:45;6.70;73.70
16503;DHT22;53067;48.114;11.694;2023-04-03T08:49:21;6.80;73.40
16503;DHT22;53067;48.114;11.694;2023-04-03T08:51:48;6.80;73.00
16503;DHT22;53067;48.114;11.694;2023-04-03T08:54:32;6.90;72.00
16503;DHT22;53067;48.114;11.694;2023-04-03T08:57:02;6.90;72.60
16503;DHT22;53067;48.114;11.694;2023-04-03T08:59:37;7.00;72.20
16503;DHT22;53067;48.114;11.694;2023-04-03T09:02:03;7.10;71.90
16503;DHT22;53067;48.114;11.694;2023-04-03T09:04:32;7.20;71.50
16503;DHT22;53067;48.114;11.694;2023-04-03T09:07:12;7.30;71.00
16503;DHT22;53067;48.114;11.694;2023-04-03T09:09:40;7.30;70.10
16503;DHT22;53067;48.114;11.694;2023-04-03T09:12:16;7.40;70.00
16503;DHT22;53067;48.114;11.694;2023-04-03T09:14:56;7.30;69.60
16503;DHT22;53067;48.114;11.694;2023-04-03T09:17:35;7.40;70.40
16503;DHT22;53067;48.114;11.694;2023-04-03T09:22:53;7.50;69.50
16503;DHT22;53067;48.114;11.694;2023-04-03T09:25:24;7.50;69.20
16503;DHT22;53067;48.114;11.694;2023-04-03T09:27:52;7.50;69.70
16503;DHT22;53067;48.114;11.694;2023-04-03T09:30:24;7.50;69.40
16503;DHT22;53067;48.114;11.694;2023-04-03T09:32:54;7.60;69.30
16503;DHT22;53067;48.114;11.694;2023-04-03T09:35:25;7.60;68.70
16503;DHT22;53067;48.114;11.694;2023-04-03T09:37:58;7.60;68.60
16503;DHT22;53067;48.114;11.694;2023-04-03T09:40:29;7.60;68.80
16503;DHT22;53067;48.114;11.694;2023-04-03T09:42:59;7.60;68.20
16503;DHT22;53067;48.114;11.694;2023-04-03T09:45:30;7.60;68.10
16503;DHT22;53067;48.114;11.694;2023-04-03T09:53:36;7.50;68.60
16503;DHT22;53067;48.114;11.694;2023-04-03T10:01:37;7.30;68.90
16503;DHT22;53067;48.114;11.694;2023-04-03T10:04:16;7.30;69.50
16503;DHT22;53067;48.114;11.694;2023-04-03T10:06:52;7.40;70.10
16503;DHT22;53067;48.114;11.694;2023-04-03T10:09:26;7.40;69.50
16503;DHT22;53067;48.114;11.694;2023-04-03T10:12:05;7.50;69.20
16503;DHT22;53067;48.114;11.694;2023-04-03T10:14:35;7.50;69.60
16503;DHT22;53067;48.114;11.694;2023-04-03T10:25:20;7.70;67.90
16503;DHT22;53067;48.114;11.694;2023-04-03T10:30:39;7.90;67.00
16503;DHT22;53067;48.114;11.694;2023-04-03T10:33:32;8.00;67.30
16503;DHT22;53067;48.114;11.694;2023-04-03T10:36:19;8.00;66.90
16503;DHT22;53067;48.114;11.694;2023-04-03T10:47:06;7.70;68.90
16503;DHT22;53067;48.114;11.694;2023-04-03T10:52:22;7.50;70.40
16503;DHT22;53067;48.114;11.694;2023-04-03T10:57:54;7.30;71.20
16503;DHT22;53067;48.114;11.694;2023-04-03T11:00:39;7.20;71.90
16503;DHT22;53067;48.114;11.694;2023-04-03T11:03:56;7.10;72.00
16503;DHT22;53067;48.114;11.694;2023-04-03T11:05:50;7.20;71.40
16503;DHT22;53067;48.114;11.694;2023-04-03T11:08:24;7.10;72.30
16503;DHT22;53067;48.114;11.694;2023-04-03T11:10:51;7.20;71.70
16503;DHT22;53067;48.114;11.694;2023-04-03T11:13:27;7.20;71.30
16503;DHT22;53067;48.114;11.694;2023-04-03T11:15:54;7.20;70.10
16503;DHT22;53067;48.114;11.694;2023-04-03T11:18:26;7.20;69.80
16503;DHT22;53067;48.114;11.694;2023-04-03T11:21:10;7.20;69.50
16503;DHT22;53067;48.114;11.694;2023-04-03T11:23:39;7.20;69.40
16503;DHT22;53067;48.114;11.694;2023-04-03T11:26:11;7.10;68.10
16503;DHT22;53067;48.114;11.694;2023-04-03T11:28:40;7.10;68.30
16503;DHT22;53067;48.114;11.694;2023-04-03T11:31:15;7.00;67.20
16503;DHT22;53067;48.114;11.694;2023-04-03T11:36:26;7.00;66.70
16503;DHT22;53067;48.114;11.694;2023-04-03T11:39:02;7.00;66.40
16503;DHT22;53067;48.114;11.694;2023-04-03T11:41:31;7.00;67.30
16503;DHT22;53067;48.114;11.694;2023-04-03T11:44:25;7.00;67.30
16503;DHT22;53067;48.114;11.694;2023-04-03T11:46:54;7.00;66.80
16503;DHT22;53067;48.114;11.694;2023-04-03T12:00:47;7.10;66.00
16503;DHT22;53067;48.114;11.694;2023-04-03T12:08:44;6.90;64.40
16503;DHT22;53067;48.114;11.694;2023-04-03T12:11:28;6.90;63.10
16503;DHT22;53067;48.114;11.694;2023-04-03T12:19:35;7.00;62.80
16503;DHT22;53067;48.114;11.694;2023-04-03T12:22:05;7.00;62.00
16503;DHT22;53067;48.114;11.694;2023-04-03T12:24:36;7.10;62.20
16503;DHT22;53067;48.114;11.694;2023-04-03T12:27:26;7.20;61.10
16503;DHT22;53067;48.114;11.694;2023-04-03T12:30:20;7.30;60.70
16503;DHT22;53067;48.114;11.694;2023-04-03T12:35:24;7.40;61.00
16503;DHT22;53067;48.114;11.694;2023-04-03T12:38:23;7.50;61.30
16503;DHT22;53067;48.114;11.694;2023-04-03T12:41:01;7.60;60.40
16503;DHT22;53067;48.114;11.694;2023-04-03T12:43:42;7.60;59.90
16503;DHT22;53067;48.114;11.694;2023-04-03T12:46:18;7.70;60.30
16503;DHT22;53067;48.114;11.694;2023-04-03T12:48:51;7.80;60.70
16503;DHT22;53067;48.114;11.694;2023-04-03T12:51:28;8.00;59.00
16503;DHT22;53067;48.114;11.694;2023-04-03T12:54:03;8.20;59.20
16503;DHT22;53067;48.114;11.694;2023-04-03T12:56:32;8.60;58.50
16503;DHT22;53067;48.114;11.694;2023-04-03T12:59:21;8.90;57.60
16503;DHT22;53067;48.114;11.694;2023-04-03T13:02:07;9.00;56.50
16503;DHT22;53067;48.114;11.694;2023-04-03T13:04:34;9.10;57.00
16503;DHT22;53067;48.114;11.694;2023-04-03T13:07:02;9.00;56.50
16503;DHT22;53067;48.114;11.694;2023-04-03T13:09:31;9.10;56.60
16503;DHT22;53067;48.114;11.694;2023-04-03T13:12:10;9.20;55.70
16503;DHT22;53067;48.114;11.694;2023-04-03T13:14:33;9.30;56.10
16503;DHT22;53067;48.114;11.694;2023-04-03T13:17:14;9.40;54.00
16503;DHT22;53067;48.114;11.694;2023-04-03T13:19:44;9.50;54.30
16503;DHT22;53067;48.114;11.694;2023-04-03T13:24:58;9.90;52.60
16503;DHT22;53067;48.114;11.694;2023-04-03T13:27:27;10.20;51.10
16503;DHT22;53067;48.114;11.694;2023-04-03T13:29:58;10.70;51.10
16503;DHT22;53067;48.114;11.694;2023-04-03T13:32:29;11.20;50.50
16503;DHT22;53067;48.114;11.694;2023-04-03T13:34:58;11.60;49.10
16503;DHT22;53067;48.114;11.694;2023-04-03T13:37:28;11.70;48.20
16503;DHT22;53067;48.114;11.694;2023-04-03T13:40:11;11.70;46.80
16503;DHT22;53067;48.114;11.694;2023-04-03T13:42:40;11.60;46.00
16503;DHT22;53067;48.114;11.694;2023-04-03T13:45:28;11.40;46.60
16503;DHT22;53067;48.114;11.694;2023-04-03T13:48:20;11.20;47.50
16503;DHT22;53067;48.114;11.694;2023-04-03T13:50:58;10.90;48.10
16503;DHT22;53067;48.114;11.694;2023-04-03T13:53:24;10.60;47.40
16503;DHT22;53067;48.114;11.694;2023-04-03T13:56:00;10.20;47.60
16503;DHT22;53067;48.114;11.694;2023-04-03T13:58:29;9.90;48.80
16503;DHT22;53067;48.114;11.694;2023-04-03T14:01:17;9.80;49.20
16503;DHT22;53067;48.114;11.694;2023-04-03T14:06:16;9.60;50.20
16503;DHT22;53067;48.114;11.694;2023-04-03T14:08:44;9.50;49.30
16503;DHT22;53067;48.114;11.694;2023-04-03T14:11:15;9.30;49.30
16503;DHT22;53067;48.114;11.694;2023-04-03T14:13:44;9.30;50.10
16503;DHT22;53067;48.114;11.694;2023-04-03T14:16:22;9.20;50.20
16503;DHT22;53067;48.114;11.694;2023-04-03T14:18:47;9.30;50.10
16503;DHT22;53067;48.114;11.694;2023-04-03T14:21:17;9.20;50.10
16503;DHT22;53067;48.114;11.694;2023-04-03T14:23:45;9.20;50.10
16503;DHT22;53067;48.114;11.694;2023-04-03T14:26:16;9.20;50.30
16503;DHT22;53067;48.114;11.694;2023-04-03T14:28:50;9.20;49.10
16503;DHT22;53067;48.114;11.694;2023-04-03T14:31:18;9.10;49.00
16503;DHT22;53067;48.114;11.694;2023-04-03T14:33:46;9.10;49.00
16503;DHT22;53067;48.114;11.694;2023-04-03T14:36:16;9.20;49.40
16503;DHT22;53067;48.114;11.694;2023-04-03T14:38:44;9.30;48.70
16503;DHT22;53067;48.114;11.694;2023-04-03T14:41:14;9.40;48.50
16503;DHT22;53067;48.114;11.694;2023-04-03T14:43:43;9.50;47.60
16503;DHT22;53067;48.114;11.694;2023-04-03T14:46:14;9.60;47.70
16503;DHT22;53067;48.114;11.694;2023-04-03T14:48:42;9.60;46.80
16503;DHT22;53067;48.114;11.694;2023-04-03T14:51:15;9.50;47.00
16503;DHT22;53067;48.114;11.694;2023-04-03T14:53:44;9.40;46.80
16503;DHT22;53067;48.114;11.694;2023-04-03T14:56:22;9.40;47.10
16503;DHT22;53067;48.114;11.694;2023-04-03T14:58:50;9.40;45.50
16503;DHT22;53067;48.114;11.694;2023-04-03T15:01:19;9.40;45.90
16503;DHT22;53067;48.114;11.694;2023-04-03T15:03:46;9.40;46.50
16503;DHT22;53067;48.114;11.694;2023-04-03T15:06:15;9.40;46.20
16503;DHT22;53067;48.114;11.694;2023-04-03T15:08:43;9.50;46.20
16503;DHT22;53067;48.114;11.694;2023-04-03T15:11:13;9.60;46.80
16503;DHT22;53067;48.114;11.694;2023-04-03T15:13:41;9.60;45.90
16503;DHT22;53067;48.114;11.694;2023-04-03T15:16:17;9.50;45.80
16503;DHT22;53067;48.114;11.694;2023-04-03T15:18:45;9.40;45.90
16503;DHT22;53067;48.114;11.694;2023-04-03T15:21:13;9.40;46.10
16503;DHT22;53067;48.114;11.694;2023-04-03T15:23:41;9.30;46.00
16503;DHT22;53067;48.114;11.694;2023-04-03T15:26:10;9.30;45.70
16503;DHT22;53067;48.114;11.694;2023-04-03T15:28:40;9.20;45.50
16503;DHT22;53067;48.114;11.694;2023-04-03T15:31:10;9.20;45.10
16503;DHT22;53067;48.114;11.694;2023-04-03T15:33:38;9.20;45.30
16503;DHT22;53067;48.114;11.694;2023-04-03T15:36:05;9.20;44.60
16503;DHT22;53067;48.114;11.694;2023-04-03T15:38:33;9.10;44.90
16503;DHT22;53067;48.114;11.694;2023-04-03T15:41:01;9.20;44.60
16503;DHT22;53067;48.114;11.694;2023-04-03T15:43:29;9.20;44.40
16503;DHT22;53067;48.114;11.694;2023-04-03T15:46:00;9.30;43.70
16503;DHT22;53067;48.114;11.694;2023-04-03T15:48:28;9.30;43.30
16503;DHT22;53067;48.114;11.694;2023-04-03T15:50:56;9.30;43.60
16503;DHT22;53067;48.114;11.694;2023-04-03T15:53:24;9.20;43.10
16503;DHT22;53067;48.114;11.694;2023-04-03T15:55:51;9.10;43.00
16503;DHT22;53067;48.114;11.694;2023-04-03T15:58:19;9.10;43.40
16503;DHT22;53067;48.114;11.694;2023-04-03T16:00:46;9.10;43.60
16503;DHT22;53067;48.114;11.694;2023-04-03T16:03:19;9.10;43.10
16503;DHT22;53067;48.114;11.694;2023-04-03T16:05:47;9.10;43.20
16503;DHT22;53067;48.114;11.694;2023-04-03T16:08:16;9.00;43.50
16503;DHT22;53067;48.114;11.694;2023-04-03T16:10:44;9.10;44.50
16503;DHT22;53067;48.114;11.694;2023-04-03T16:13:15;9.10;44.70
16503;DHT22;53067;48.114;11.694;2023-04-03T16:15:42;9.10;44.50
16503;DHT22;53067;48.114;11.694;2023-04-03T16:18:10;9.00;43.60
16503;DHT22;53067;48.114;11.694;2023-04-03T16:20:39;9.00;43.50
16503;DHT22;53067;48.114;11.694;2023-04-03T16:23:07;9.00;43.10
16503;DHT22;53067;48.114;11.694;2023-04-03T16:25:35;9.00;43.50
16503;DHT22;53067;48.114;11.694;2023-04-03T16:28:02;9.00;42.80
16503;DHT22;53067;48.114;11.694;2023-04-03T16:30:30;9.00;43.40
16503;DHT22;53067;48.114;11.694;2023-04-03T16:32:58;8.90;44.20
16503;DHT22;53067;48.114;11.694;2023-04-03T16:35:25;8.90;44.20
16503;DHT22;53067;48.114;11.694;2023-04-03T16:37:53;8.90;43.50
16503;DHT22;53067;48.114;11.694;2023-04-03T16:40:20;8.80;44.20
16503;DHT22;53067;48.114;11.694;2023-04-03T16:42:48;8.80;44.70
16503;DHT22;53067;48.114;11.694;2023-04-03T16:45:15;8.80;43.90
16503;DHT22;53067;48.114;11.694;2023-04-03T16:47:43;8.70;44.60
16503;DHT22;53067;48.114;11.694;2023-04-03T16:50:12;8.70;44.50
16503;DHT22;53067;48.114;11.694;2023-04-03T16:52:40;8.60;44.90
16503;DHT22;53067;48.114;11.694;2023-04-03T16:55:08;8.50;45.40
16503;DHT22;53067;48.114;11.694;2023-04-03T16:57:36;8.50;45.70
16503;DHT22;53067;48.114;11.694;2023-04-03T17:00:05;8.50;46.60
16503;DHT22;53067;48.114;11.694;2023-04-03T17:02:33;8.40;47.00
16503;DHT22;53067;48.114;11.694;2023-04-03T17:05:01;8.40;47.00